sensor_id;sensor_type;location;lat;lon;timestamp;P1;durP1;ratioP1;P2;durP2;ratioP2
56122;SDS011;42426;46.104;19.656;2022-07-23T00:00:50;29.58;;;17.48;;
56122;SDS011;42426;46.104;19.656;2022-07-23T00:03:21;29.38;;;17.13;;
56122;SDS011;42426;46.104;19.656;2022-07-23T00:05:50;31.33;;;18.17;;
56122;SDS011;42426;46.104;19.656;2022-07-23T00:08:16;27.17;;;15.68;;
56122;SDS011;42426;46.104;19.656;2022-07-23T00:10:42;29.55;;;16.27;;
56122;SDS011;42426;46.104;19.656;2022-07-23T00:13:07;22.77;;;14.88;;
56122;SDS011;42426;46.104;19.656;2022-07-23T00:15:33;25.60;;;15.20;;
56122;SDS011;42426;46.104;19.656;2022-07-23T00:18:05;24.58;;;14.52;;
56122;SDS011;42426;46.104;19.656;2022-07-23T00:20:31;27.60;;;13.73;;
56122;SDS011;42426;46.104;19.656;2022-07-23T00:22:56;21.67;;;13.05;;
56122;SDS011;42426;46.104;19.656;2022-07-23T00:25:26;20.00;;;12.93;;
56122;SDS011;42426;46.104;19.656;2022-07-23T00:28:28;21.53;;;13.23;;
56122;SDS011;42426;46.104;19.656;2022-07-23T00:30:54;23.08;;;14.88;;
56122;SDS011;42426;46.104;19.656;2022-07-23T00:33:25;22.35;;;12.65;;
56122;SDS011;42426;46.104;19.656;2022-07-23T00:35:51;23.98;;;12.85;;
56122;SDS011;42426;46.104;19.656;2022-07-23T00:38:25;25.90;;;13.45;;
56122;SDS011;42426;46.104;19.656;2022-07-23T00:40:51;19.90;;;13.55;;
56122;SDS011;42426;46.104;19.656;2022-07-23T00:43:24;20.63;;;12.63;;
56122;SDS011;42426;46.104;19.656;2022-07-23T00:45:50;20.25;;;12.32;;
56122;SDS011;42426;46.104;19.656;2022-07-23T00:48:16;23.13;;;15.95;;
56122;SDS011;42426;46.104;19.656;2022-07-23T00:50:42;27.48;;;18.98;;
56122;SDS011;42426;46.104;19.656;2022-07-23T00:53:08;25.73;;;17.85;;
56122;SDS011;42426;46.104;19.656;2022-07-23T00:55:35;22.52;;;14.15;;
56122;SDS011;42426;46.104;19.656;2022-07-23T00:58:01;21.25;;;11.82;;
56122;SDS011;42426;46.104;19.656;2022-07-23T01:00:34;17.35;;;11.55;;
56122;SDS011;42426;46.104;19.656;2022-07-23T01:03:02;16.67;;;11.45;;
56122;SDS011;42426;46.104;19.656;2022-07-23T01:05:28;18.08;;;12.20;;
56122;SDS011;42426;46.104;19.656;2022-07-23T01:07:54;20.70;;;11.82;;
56122;SDS011;42426;46.104;19.656;2022-07-23T01:10:19;22.13;;;12.82;;
56122;SDS011;42426;46.104;19.656;2022-07-23T01:13:05;19.23;;;11.98;;
56122;SDS011;42426;46.104;19.656;2022-07-23T01:15:37;20.33;;;11.18;;
56122;SDS011;42426;46.104;19.656;2022-07-23T01:18:04;21.65;;;12.45;;
56122;SDS011;42426;46.104;19.656;2022-07-23T01:20:31;17.60;;;11.18;;
56122;SDS011;42426;46.104;19.656;2022-07-23T01:22:57;18.90;;;10.65;;
56122;SDS011;42426;46.104;19.656;2022-07-23T01:25:24;16.73;;;11.50;;
56122;SDS011;42426;46.104;19.656;2022-07-23T01:27:51;18.15;;;11.23;;
56122;SDS011;42426;46.104;19.656;2022-07-23T01:30:17;18.23;;;10.95;;
56122;SDS011;42426;46.104;19.656;2022-07-23T01:32:43;27.05;;;11.48;;
56122;SDS011;42426;46.104;19.656;2022-07-23T01:35:09;18.10;;;10.88;;
56122;SDS011;42426;46.104;19.656;2022-07-23T01:37:35;16.38;;;9.98;;
56122;SDS011;42426;46.104;19.656;2022-07-23T01:40:02;18.85;;;10.60;;
56122;SDS011;42426;46.104;19.656;2022-07-23T01:42:29;14.02;;;10.55;;
56122;SDS011;42426;46.104;19.656;2022-07-23T01:44:55;16.05;;;11.48;;
56122;SDS011;42426;46.104;19.656;2022-07-23T01:47:21;18.95;;;10.73;;
56122;SDS011;42426;46.104;19.656;2022-07-23T01:49:47;15.38;;;11.70;;
56122;SDS011;42426;46.104;19.656;2022-07-23T01:52:13;18.20;;;10.25;;
56122;SDS011;42426;46.104;19.656;2022-07-23T01:54:38;17.40;;;10.23;;
56122;SDS011;42426;46.104;19.656;2022-07-23T01:57:05;17.63;;;10.90;;
56122;SDS011;42426;46.104;19.656;2022-07-23T01:59:31;16.48;;;10.40;;
56122;SDS011;42426;46.104;19.656;2022-07-23T02:01:57;17.40;;;11.00;;
56122;SDS011;42426;46.104;19.656;2022-07-23T02:04:24;16.27;;;9.32;;
56122;SDS011;42426;46.104;19.656;2022-07-23T02:06:50;20.77;;;11.57;;
56122;SDS011;42426;46.104;19.656;2022-07-23T02:09:17;14.55;;;10.38;;
56122;SDS011;42426;46.104;19.656;2022-07-23T02:11:43;15.48;;;10.90;;
56122;SDS011;42426;46.104;19.656;2022-07-23T02:14:09;16.10;;;10.10;;
56122;SDS011;42426;46.104;19.656;2022-07-23T02:16:35;18.67;;;11.75;;
56122;SDS011;42426;46.104;19.656;2022-07-23T02:19:01;19.95;;;11.48;;
56122;SDS011;42426;46.104;19.656;2022-07-23T02:21:27;17.33;;;9.93;;
56122;SDS011;42426;46.104;19.656;2022-07-23T02:23:53;14.63;;;10.07;;
56122;SDS011;42426;46.104;19.656;2022-07-23T02:26:19;17.25;;;11.30;;
56122;SDS011;42426;46.104;19.656;2022-07-23T02:28:44;19.92;;;10.82;;
56122;SDS011;42426;46.104;19.656;2022-07-23T02:31:10;15.23;;;9.73;;
56122;SDS011;42426;46.104;19.656;2022-07-23T02:33:36;17.05;;;9.63;;
56122;SDS011;42426;46.104;19.656;2022-07-23T02:36:02;16.58;;;9.88;;
56122;SDS011;42426;46.104;19.656;2022-07-23T02:38:27;18.85;;;9.88;;
56122;SDS011;42426;46.104;19.656;2022-07-23T02:40:53;18.83;;;11.73;;
56122;SDS011;42426;46.104;19.656;2022-07-23T02:43:19;15.18;;;9.75;;
56122;SDS011;42426;46.104;19.656;2022-07-23T02:45:45;15.35;;;9.43;;
56122;SDS011;42426;46.104;19.656;2022-07-23T02:48:10;16.95;;;9.77;;
56122;SDS011;42426;46.104;19.656;2022-07-23T02:50:37;17.33;;;9.35;;
56122;SDS011;42426;46.104;19.656;2022-07-23T02:53:03;13.82;;;10.43;;
56122;SDS011;42426;46.104;19.656;2022-07-23T02:55:29;12.30;;;9.63;;
56122;SDS011;42426;46.104;19.656;2022-07-23T02:57:56;13.70;;;10.10;;
56122;SDS011;42426;46.104;19.656;2022-07-23T03:00:22;13.57;;;9.48;;
56122;SDS011;42426;46.104;19.656;2022-07-23T03:02:48;19.77;;;10.60;;
56122;SDS011;42426;46.104;19.656;2022-07-23T03:05:13;16.60;;;10.63;;
56122;SDS011;42426;46.104;19.656;2022-07-23T03:07:39;19.13;;;11.10;;
56122;SDS011;42426;46.104;19.656;2022-07-23T03:10:06;15.35;;;10.18;;
56122;SDS011;42426;46.104;19.656;2022-07-23T03:12:32;17.65;;;10.85;;
56122;SDS011;42426;46.104;19.656;2022-07-23T03:14:58;15.35;;;11.30;;
56122;SDS011;42426;46.104;19.656;2022-07-23T03:17:24;17.45;;;10.80;;
56122;SDS011;42426;46.104;19.656;2022-07-23T03:19:50;18.42;;;11.48;;
56122;SDS011;42426;46.104;19.656;2022-07-23T03:22:16;18.77;;;12.00;;
56122;SDS011;42426;46.104;19.656;2022-07-23T03:24:42;23.27;;;12.38;;
56122;SDS011;42426;46.104;19.656;2022-07-23T03:27:23;17.98;;;12.20;;
56122;SDS011;42426;46.104;19.656;2022-07-23T03:29:55;15.25;;;10.68;;
56122;SDS011;42426;46.104;19.656;2022-07-23T03:32:23;13.70;;;10.27;;
56122;SDS011;42426;46.104;19.656;2022-07-23T03:34:49;13.15;;;10.10;;
56122;SDS011;42426;46.104;19.656;2022-07-23T03:37:15;16.33;;;11.07;;
56122;SDS011;42426;46.104;19.656;2022-07-23T03:39:41;18.08;;;11.30;;
56122;SDS011;42426;46.104;19.656;2022-07-23T03:42:07;21.13;;;10.65;;
56122;SDS011;42426;46.104;19.656;2022-07-23T03:44:40;17.13;;;10.35;;
56122;SDS011;42426;46.104;19.656;2022-07-23T03:47:06;24.25;;;13.35;;
56122;SDS011;42426;46.104;19.656;2022-07-23T03:49:32;16.02;;;10.68;;
56122;SDS011;42426;46.104;19.656;2022-07-23T03:51:58;18.55;;;11.10;;
56122;SDS011;42426;46.104;19.656;2022-07-23T03:54:24;15.32;;;9.93;;
56122;SDS011;42426;46.104;19.656;2022-07-23T03:56:50;18.25;;;11.00;;
56122;SDS011;42426;46.104;19.656;2022-07-23T03:59:16;21.55;;;11.23;;
56122;SDS011;42426;46.104;19.656;2022-07-23T04:01:41;21.15;;;10.80;;
56122;SDS011;42426;46.104;19.656;2022-07-23T04:04:07;15.30;;;11.55;;
56122;SDS011;42426;46.104;19.656;2022-07-23T04:06:34;18.38;;;11.55;;
56122;SDS011;42426;46.104;19.656;2022-07-23T04:09:00;20.63;;;11.60;;
56122;SDS011;42426;46.104;19.656;2022-07-23T04:11:26;20.35;;;12.63;;
56122;SDS011;42426;46.104;19.656;2022-07-23T04:13:52;24.80;;;13.35;;
56122;SDS011;42426;46.104;19.656;2022-07-23T04:16:18;24.25;;;13.63;;
56122;SDS011;42426;46.104;19.656;2022-07-23T04:18:43;26.02;;;12.93;;
56122;SDS011;42426;46.104;19.656;2022-07-23T04:21:09;24.80;;;13.57;;
56122;SDS011;42426;46.104;19.656;2022-07-23T04:23:35;22.77;;;13.70;;
56122;SDS011;42426;46.104;19.656;2022-07-23T04:26:03;23.50;;;12.50;;
56122;SDS011;42426;46.104;19.656;2022-07-23T04:28:29;21.38;;;14.32;;
56122;SDS011;42426;46.104;19.656;2022-07-23T04:30:56;20.08;;;13.63;;
56122;SDS011;42426;46.104;19.656;2022-07-23T04:33:22;23.70;;;13.07;;
56122;SDS011;42426;46.104;19.656;2022-07-23T04:35:48;24.88;;;13.70;;
56122;SDS011;42426;46.104;19.656;2022-07-23T04:38:14;17.13;;;12.50;;
56122;SDS011;42426;46.104;19.656;2022-07-23T04:40:40;16.63;;;11.60;;
56122;SDS011;42426;46.104;19.656;2022-07-23T04:43:05;23.02;;;12.90;;
56122;SDS011;42426;46.104;19.656;2022-07-23T04:45:31;30.05;;;13.57;;
56122;SDS011;42426;46.104;19.656;2022-07-23T04:47:57;21.50;;;11.70;;
56122;SDS011;42426;46.104;19.656;2022-07-23T04:50:45;17.52;;;10.95;;
56122;SDS011;42426;46.104;19.656;2022-07-23T04:53:10;20.35;;;11.05;;
56122;SDS011;42426;46.104;19.656;2022-07-23T04:55:36;17.15;;;10.25;;
56122;SDS011;42426;46.104;19.656;2022-07-23T04:58:02;16.80;;;10.35;;
56122;SDS011;42426;46.104;19.656;2022-07-23T05:00:28;19.70;;;10.02;;
56122;SDS011;42426;46.104;19.656;2022-07-23T05:02:53;16.92;;;9.65;;
56122;SDS011;42426;46.104;19.656;2022-07-23T05:05:19;21.98;;;11.80;;
56122;SDS011;42426;46.104;19.656;2022-07-23T05:07:45;21.38;;;10.18;;
56122;SDS011;42426;46.104;19.656;2022-07-23T05:10:11;21.20;;;9.80;;
56122;SDS011;42426;46.104;19.656;2022-07-23T05:12:36;20.55;;;10.57;;
56122;SDS011;42426;46.104;19.656;2022-07-23T05:15:02;19.55;;;11.60;;
56122;SDS011;42426;46.104;19.656;2022-07-23T05:17:31;25.10;;;11.38;;
56122;SDS011;42426;46.104;19.656;2022-07-23T05:19:57;28.20;;;12.43;;
56122;SDS011;42426;46.104;19.656;2022-07-23T05:22:23;19.45;;;11.55;;
56122;SDS011;42426;46.104;19.656;2022-07-23T05:24:49;19.42;;;13.50;;
56122;SDS011;42426;46.104;19.656;2022-07-23T05:27:14;18.60;;;13.93;;
56122;SDS011;42426;46.104;19.656;2022-07-23T05:29:40;19.95;;;13.10;;
56122;SDS011;42426;46.104;19.656;2022-07-23T05:32:06;29.60;;;15.57;;
56122;SDS011;42426;46.104;19.656;2022-07-23T05:34:32;33.13;;;16.40;;
56122;SDS011;42426;46.104;19.656;2022-07-23T05:36:57;24.88;;;13.88;;
56122;SDS011;42426;46.104;19.656;2022-07-23T05:39:23;22.98;;;12.82;;
56122;SDS011;42426;46.104;19.656;2022-07-23T05:41:52;24.45;;;11.82;;
56122;SDS011;42426;46.104;19.656;2022-07-23T05:44:47;20.73;;;10.65;;
56122;SDS011;42426;46.104;19.656;2022-07-23T05:47:13;28.40;;;12.40;;
56122;SDS011;42426;46.104;19.656;2022-07-23T05:49:39;33.53;;;12.88;;
56122;SDS011;42426;46.104;19.656;2022-07-23T05:52:05;36.85;;;12.50;;
56122;SDS011;42426;46.104;19.656;2022-07-23T05:54:34;37.78;;;12.25;;
56122;SDS011;42426;46.104;19.656;2022-07-23T05:57:00;24.85;;;10.38;;
56122;SDS011;42426;46.104;19.656;2022-07-23T05:59:26;24.40;;;10.43;;
56122;SDS011;42426;46.104;19.656;2022-07-23T06:01:55;24.67;;;10.13;;
56122;SDS011;42426;46.104;19.656;2022-07-23T06:04:21;19.67;;;10.38;;
56122;SDS011;42426;46.104;19.656;2022-07-23T06:06:47;19.75;;;9.90;;
56122;SDS011;42426;46.104;19.656;2022-07-23T06:09:14;22.92;;;10.88;;
56122;SDS011;42426;46.104;19.656;2022-07-23T06:11:40;16.33;;;10.55;;
56122;SDS011;42426;46.104;19.656;2022-07-23T06:14:06;17.63;;;8.25;;
56122;SDS011;42426;46.104;19.656;2022-07-23T06:16:32;27.48;;;11.50;;
56122;SDS011;42426;46.104;19.656;2022-07-23T06:18:58;15.63;;;10.50;;
56122;SDS011;42426;46.104;19.656;2022-07-23T06:21:23;20.45;;;11.30;;
56122;SDS011;42426;46.104;19.656;2022-07-23T06:23:51;16.58;;;9.52;;
56122;SDS011;42426;46.104;19.656;2022-07-23T06:26:17;16.90;;;9.32;;
56122;SDS011;42426;46.104;19.656;2022-07-23T06:28:43;11.93;;;8.20;;
56122;SDS011;42426;46.104;19.656;2022-07-23T06:31:09;13.18;;;9.38;;
56122;SDS011;42426;46.104;19.656;2022-07-23T06:33:36;17.25;;;9.00;;
56122;SDS011;42426;46.104;19.656;2022-07-23T06:36:01;16.60;;;9.52;;
56122;SDS011;42426;46.104;19.656;2022-07-23T06:38:27;15.45;;;8.90;;
56122;SDS011;42426;46.104;19.656;2022-07-23T06:40:53;15.73;;;10.05;;
56122;SDS011;42426;46.104;19.656;2022-07-23T06:43:19;16.58;;;9.55;;
56122;SDS011;42426;46.104;19.656;2022-07-23T06:45:44;20.88;;;9.45;;
56122;SDS011;42426;46.104;19.656;2022-07-23T06:48:10;16.48;;;8.40;;
56122;SDS011;42426;46.104;19.656;2022-07-23T06:50:36;14.05;;;8.68;;
56122;SDS011;42426;46.104;19.656;2022-07-23T06:53:01;9.85;;;8.60;;
56122;SDS011;42426;46.104;19.656;2022-07-23T06:55:27;17.80;;;8.90;;
56122;SDS011;42426;46.104;19.656;2022-07-23T06:57:53;12.30;;;9.50;;
56122;SDS011;42426;46.104;19.656;2022-07-23T07:00:19;26.05;;;21.58;;
56122;SDS011;42426;46.104;19.656;2022-07-23T07:02:44;26.67;;;18.92;;
56122;SDS011;42426;46.104;19.656;2022-07-23T07:05:10;19.40;;;12.60;;
56122;SDS011;42426;46.104;19.656;2022-07-23T07:07:36;24.02;;;11.27;;
56122;SDS011;42426;46.104;19.656;2022-07-23T07:10:05;22.10;;;10.52;;
56122;SDS011;42426;46.104;19.656;2022-07-23T07:12:31;13.75;;;10.35;;
56122;SDS011;42426;46.104;19.656;2022-07-23T07:14:57;18.67;;;10.02;;
56122;SDS011;42426;46.104;19.656;2022-07-23T07:17:22;15.48;;;10.07;;
56122;SDS011;42426;46.104;19.656;2022-07-23T07:19:48;14.73;;;10.23;;
56122;SDS011;42426;46.104;19.656;2022-07-23T07:22:14;18.35;;;10.30;;
56122;SDS011;42426;46.104;19.656;2022-07-23T07:24:40;26.20;;;11.30;;
56122;SDS011;42426;46.104;19.656;2022-07-23T07:27:05;24.35;;;11.02;;
56122;SDS011;42426;46.104;19.656;2022-07-23T07:29:32;16.60;;;8.82;;
56122;SDS011;42426;46.104;19.656;2022-07-23T07:31:58;13.27;;;8.82;;
56122;SDS011;42426;46.104;19.656;2022-07-23T07:34:24;19.27;;;9.52;;
56122;SDS011;42426;46.104;19.656;2022-07-23T07:36:50;27.30;;;10.07;;
56122;SDS011;42426;46.104;19.656;2022-07-23T07:39:16;15.57;;;9.45;;
56122;SDS011;42426;46.104;19.656;2022-07-23T07:41:42;20.48;;;9.65;;
56122;SDS011;42426;46.104;19.656;2022-07-23T07:44:07;29.20;;;9.40;;
56122;SDS011;42426;46.104;19.656;2022-07-23T07:46:33;15.88;;;8.27;;
56122;SDS011;42426;46.104;19.656;2022-07-23T07:48:59;16.33;;;9.00;;
56122;SDS011;42426;46.104;19.656;2022-07-23T07:51:25;21.38;;;9.27;;
56122;SDS011;42426;46.104;19.656;2022-07-23T07:53:52;18.52;;;9.18;;
56122;SDS011;42426;46.104;19.656;2022-07-23T07:56:18;23.23;;;9.00;;
56122;SDS011;42426;46.104;19.656;2022-07-23T07:58:44;12.65;;;8.48;;
56122;SDS011;42426;46.104;19.656;2022-07-23T08:01:10;16.58;;;10.65;;
56122;SDS011;42426;46.104;19.656;2022-07-23T08:03:36;17.50;;;8.38;;
56122;SDS011;42426;46.104;19.656;2022-07-23T08:06:02;17.52;;;8.38;;
56122;SDS011;42426;46.104;19.656;2022-07-23T08:08:28;10.55;;;8.18;;
56122;SDS011;42426;46.104;19.656;2022-07-23T08:10:54;12.77;;;8.98;;
56122;SDS011;42426;46.104;19.656;2022-07-23T08:13:20;28.65;;;8.50;;
56122;SDS011;42426;46.104;19.656;2022-07-23T08:15:46;11.30;;;8.43;;
56122;SDS011;42426;46.104;19.656;2022-07-23T08:18:12;11.00;;;8.05;;
56122;SDS011;42426;46.104;19.656;2022-07-23T08:20:39;14.05;;;7.00;;
56122;SDS011;42426;46.104;19.656;2022-07-23T08:23:06;13.48;;;7.40;;
56122;SDS011;42426;46.104;19.656;2022-07-23T08:25:36;12.73;;;7.63;;
56122;SDS011;42426;46.104;19.656;2022-07-23T08:28:04;15.27;;;7.15;;
56122;SDS011;42426;46.104;19.656;2022-07-23T08:30:30;11.07;;;6.85;;
56122;SDS011;42426;46.104;19.656;2022-07-23T08:32:58;17.17;;;7.63;;
56122;SDS011;42426;46.104;19.656;2022-07-23T08:35:32;13.43;;;8.90;;
56122;SDS011;42426;46.104;19.656;2022-07-23T08:38:03;19.45;;;8.32;;
56122;SDS011;42426;46.104;19.656;2022-07-23T08:40:31;13.45;;;9.43;;
56122;SDS011;42426;46.104;19.656;2022-07-23T08:42:59;8.43;;;7.13;;
56122;SDS011;42426;46.104;19.656;2022-07-23T08:45:26;17.15;;;7.93;;
56122;SDS011;42426;46.104;19.656;2022-07-23T08:47:56;21.77;;;7.15;;
56122;SDS011;42426;46.104;19.656;2022-07-23T08:50:25;16.02;;;7.25;;
56122;SDS011;42426;46.104;19.656;2022-07-23T08:52:52;15.82;;;8.75;;
56122;SDS011;42426;46.104;19.656;2022-07-23T08:55:19;16.40;;;8.07;;
56122;SDS011;42426;46.104;19.656;2022-07-23T08:57:47;12.02;;;7.10;;
56122;SDS011;42426;46.104;19.656;2022-07-23T09:00:14;13.18;;;7.60;;
56122;SDS011;42426;46.104;19.656;2022-07-23T09:02:41;28.70;;;9.63;;
56122;SDS011;42426;46.104;19.656;2022-07-23T09:05:08;14.35;;;7.07;;
56122;SDS011;42426;46.104;19.656;2022-07-23T09:07:36;26.02;;;7.20;;
56122;SDS011;42426;46.104;19.656;2022-07-23T09:10:09;38.17;;;10.35;;
56122;SDS011;42426;46.104;19.656;2022-07-23T09:12:36;37.50;;;9.73;;
56122;SDS011;42426;46.104;19.656;2022-07-23T09:15:04;11.45;;;6.32;;
56122;SDS011;42426;46.104;19.656;2022-07-23T09:17:36;20.83;;;8.73;;
56122;SDS011;42426;46.104;19.656;2022-07-23T09:20:09;19.52;;;7.60;;
56122;SDS011;42426;46.104;19.656;2022-07-23T09:22:35;29.70;;;17.35;;
56122;SDS011;42426;46.104;19.656;2022-07-23T09:25:06;30.60;;;11.70;;
56122;SDS011;42426;46.104;19.656;2022-07-23T09:27:46;17.73;;;9.77;;
56122;SDS011;42426;46.104;19.656;2022-07-23T09:30:22;17.77;;;6.97;;
56122;SDS011;42426;46.104;19.656;2022-07-23T09:33:07;11.88;;;6.13;;
56122;SDS011;42426;46.104;19.656;2022-07-23T09:35:51;20.20;;;7.60;;
56122;SDS011;42426;46.104;19.656;2022-07-23T09:38:18;10.60;;;6.88;;
56122;SDS011;42426;46.104;19.656;2022-07-23T09:40:45;63.17;;;14.43;;
56122;SDS011;42426;46.104;19.656;2022-07-23T09:43:12;17.77;;;7.88;;
56122;SDS011;42426;46.104;19.656;2022-07-23T09:45:51;9.55;;;6.65;;
56122;SDS011;42426;46.104;19.656;2022-07-23T09:48:17;21.92;;;8.10;;
56122;SDS011;42426;46.104;19.656;2022-07-23T09:50:43;12.48;;;6.35;;
56122;SDS011;42426;46.104;19.656;2022-07-23T09:53:10;22.92;;;8.00;;
56122;SDS011;42426;46.104;19.656;2022-07-23T09:55:49;27.27;;;8.27;;
56122;SDS011;42426;46.104;19.656;2022-07-23T09:58:19;12.50;;;7.60;;
56122;SDS011;42426;46.104;19.656;2022-07-23T10:00:46;16.48;;;6.97;;
56122;SDS011;42426;46.104;19.656;2022-07-23T10:03:14;8.57;;;6.00;;
56122;SDS011;42426;46.104;19.656;2022-07-23T10:05:42;16.25;;;8.52;;
56122;SDS011;42426;46.104;19.656;2022-07-23T10:08:10;13.77;;;7.32;;
56122;SDS011;42426;46.104;19.656;2022-07-23T10:10:38;16.08;;;6.88;;
56122;SDS011;42426;46.104;19.656;2022-07-23T10:13:05;23.33;;;10.48;;
56122;SDS011;42426;46.104;19.656;2022-07-23T10:15:53;14.43;;;7.32;;
56122;SDS011;42426;46.104;19.656;2022-07-23T10:18:19;13.13;;;7.32;;
56122;SDS011;42426;46.104;19.656;2022-07-23T10:20:46;13.00;;;6.82;;
56122;SDS011;42426;46.104;19.656;2022-07-23T10:23:20;18.05;;;7.78;;
56122;SDS011;42426;46.104;19.656;2022-07-23T10:26:06;26.55;;;8.73;;
56122;SDS011;42426;46.104;19.656;2022-07-23T10:32:02;24.60;;;8.83;;
56122;SDS011;42426;46.104;19.656;2022-07-23T10:39:32;11.50;;;6.68;;
56122;SDS011;42426;46.104;19.656;2022-07-23T10:44:38;33.20;;;9.45;;
56122;SDS011;42426;46.104;19.656;2022-07-23T10:47:12;16.42;;;7.63;;
56122;SDS011;42426;46.104;19.656;2022-07-23T10:50:16;16.05;;;7.28;;
56122;SDS011;42426;46.104;19.656;2022-07-23T10:52:42;16.65;;;7.63;;
56122;SDS011;42426;46.104;19.656;2022-07-23T10:57:59;20.33;;;7.65;;
56122;SDS011;42426;46.104;19.656;2022-07-23T11:00:32;25.38;;;7.07;;
56122;SDS011;42426;46.104;19.656;2022-07-23T11:03:27;13.27;;;7.55;;
56122;SDS011;42426;46.104;19.656;2022-07-23T11:06:01;14.85;;;6.47;;
56122;SDS011;42426;46.104;19.656;2022-07-23T11:08:27;9.27;;;6.43;;
56122;SDS011;42426;46.104;19.656;2022-07-23T11:13:29;9.65;;;6.95;;
56122;SDS011;42426;46.104;19.656;2022-07-23T11:19:13;9.02;;;7.03;;
56122;SDS011;42426;46.104;19.656;2022-07-23T11:36:58;10.32;;;6.70;;
56122;SDS011;42426;46.104;19.656;2022-07-23T11:39:26;9.07;;;6.30;;
56122;SDS011;42426;46.104;19.656;2022-07-23T11:41:53;10.80;;;6.13;;
56122;SDS011;42426;46.104;19.656;2022-07-23T11:47:02;12.70;;;7.47;;
56122;SDS011;42426;46.104;19.656;2022-07-23T11:49:28;7.85;;;6.25;;
56122;SDS011;42426;46.104;19.656;2022-07-23T11:54:33;11.57;;;6.80;;
56122;SDS011;42426;46.104;19.656;2022-07-23T11:56:59;11.80;;;7.07;;
56122;SDS011;42426;46.104;19.656;2022-07-23T11:59:26;11.52;;;6.90;;
56122;SDS011;42426;46.104;19.656;2022-07-23T12:01:56;8.65;;;7.25;;
56122;SDS011;42426;46.104;19.656;2022-07-23T12:04:43;16.20;;;7.18;;
56122;SDS011;42426;46.104;19.656;2022-07-23T12:10:12;10.38;;;6.55;;
56122;SDS011;42426;46.104;19.656;2022-07-23T12:12:41;11.55;;;7.07;;
56122;SDS011;42426;46.104;19.656;2022-07-23T12:15:09;9.60;;;6.97;;
56122;SDS011;42426;46.104;19.656;2022-07-23T12:17:37;10.43;;;6.13;;
56122;SDS011;42426;46.104;19.656;2022-07-23T12:20:05;8.57;;;6.53;;
56122;SDS011;42426;46.104;19.656;2022-07-23T12:22:36;15.93;;;7.00;;
56122;SDS011;42426;46.104;19.656;2022-07-23T12:27:37;10.05;;;6.32;;
56122;SDS011;42426;46.104;19.656;2022-07-23T12:30:19;8.27;;;6.30;;
56122;SDS011;42426;46.104;19.656;2022-07-23T12:32:54;8.27;;;6.72;;
56122;SDS011;42426;46.104;19.656;2022-07-23T12:35:22;12.48;;;6.47;;
56122;SDS011;42426;46.104;19.656;2022-07-23T12:37:50;16.05;;;6.72;;
56122;SDS011;42426;46.104;19.656;2022-07-23T12:42:48;12.07;;;7.78;;
56122;SDS011;42426;46.104;19.656;2022-07-23T12:45:16;10.55;;;7.53;;
56122;SDS011;42426;46.104;19.656;2022-07-23T12:50:31;30.77;;;8.63;;
56122;SDS011;42426;46.104;19.656;2022-07-23T12:53:32;7.95;;;6.80;;
56122;SDS011;42426;46.104;19.656;2022-07-23T12:58:24;8.07;;;6.25;;
56122;SDS011;42426;46.104;19.656;2022-07-23T13:05:54;11.43;;;6.60;;
56122;SDS011;42426;46.104;19.656;2022-07-23T13:08:20;10.10;;;6.43;;
56122;SDS011;42426;46.104;19.656;2022-07-23T13:10:46;10.70;;;6.93;;
56122;SDS011;42426;46.104;19.656;2022-07-23T13:13:13;10.25;;;6.60;;
56122;SDS011;42426;46.104;19.656;2022-07-23T13:15:39;6.97;;;6.28;;
56122;SDS011;42426;46.104;19.656;2022-07-23T13:18:05;9.55;;;5.97;;
56122;SDS011;42426;46.104;19.656;2022-07-23T13:20:31;6.68;;;5.93;;
56122;SDS011;42426;46.104;19.656;2022-07-23T13:22:59;9.35;;;6.38;;
56122;SDS011;42426;46.104;19.656;2022-07-23T13:25:25;10.45;;;6.60;;
56122;SDS011;42426;46.104;19.656;2022-07-23T13:27:51;8.45;;;5.65;;
56122;SDS011;42426;46.104;19.656;2022-07-23T13:30:17;7.60;;;6.43;;
56122;SDS011;42426;46.104;19.656;2022-07-23T13:32:43;13.50;;;6.18;;
56122;SDS011;42426;46.104;19.656;2022-07-23T13:35:08;11.00;;;6.05;;
56122;SDS011;42426;46.104;19.656;2022-07-23T13:37:35;13.25;;;6.88;;
56122;SDS011;42426;46.104;19.656;2022-07-23T13:40:01;9.13;;;6.22;;
56122;SDS011;42426;46.104;19.656;2022-07-23T13:42:27;8.98;;;5.90;;
56122;SDS011;42426;46.104;19.656;2022-07-23T13:44:53;11.82;;;6.22;;
56122;SDS011;42426;46.104;19.656;2022-07-23T13:47:19;10.82;;;6.22;;
56122;SDS011;42426;46.104;19.656;2022-07-23T13:49:44;12.98;;;6.80;;
56122;SDS011;42426;46.104;19.656;2022-07-23T13:52:10;9.10;;;6.20;;
56122;SDS011;42426;46.104;19.656;2022-07-23T13:54:36;9.48;;;6.95;;
56122;SDS011;42426;46.104;19.656;2022-07-23T13:57:02;6.72;;;5.45;;
56122;SDS011;42426;46.104;19.656;2022-07-23T13:59:28;7.50;;;6.25;;
56122;SDS011;42426;46.104;19.656;2022-07-23T14:01:54;8.23;;;6.40;;
56122;SDS011;42426;46.104;19.656;2022-07-23T14:04:20;6.90;;;5.93;;
56122;SDS011;42426;46.104;19.656;2022-07-23T14:06:46;7.78;;;5.50;;
56122;SDS011;42426;46.104;19.656;2022-07-23T14:09:12;10.75;;;6.63;;
56122;SDS011;42426;46.104;19.656;2022-07-23T14:11:38;11.50;;;5.78;;
56122;SDS011;42426;46.104;19.656;2022-07-23T14:14:04;8.10;;;5.97;;
56122;SDS011;42426;46.104;19.656;2022-07-23T14:16:30;12.20;;;6.80;;
56122;SDS011;42426;46.104;19.656;2022-07-23T14:18:56;6.63;;;6.05;;
56122;SDS011;42426;46.104;19.656;2022-07-23T14:21:22;11.77;;;6.35;;
56122;SDS011;42426;46.104;19.656;2022-07-23T14:23:47;11.15;;;8.38;;
56122;SDS011;42426;46.104;19.656;2022-07-23T14:26:13;10.75;;;8.10;;
56122;SDS011;42426;46.104;19.656;2022-07-23T14:28:39;8.15;;;7.45;;
56122;SDS011;42426;46.104;19.656;2022-07-23T14:31:05;8.00;;;7.20;;
56122;SDS011;42426;46.104;19.656;2022-07-23T14:33:31;11.80;;;7.90;;
56122;SDS011;42426;46.104;19.656;2022-07-23T14:35:56;11.40;;;7.53;;
56122;SDS011;42426;46.104;19.656;2022-07-23T14:38:24;9.52;;;6.78;;
56122;SDS011;42426;46.104;19.656;2022-07-23T14:40:49;6.90;;;6.10;;
56122;SDS011;42426;46.104;19.656;2022-07-23T14:43:15;9.77;;;6.97;;
56122;SDS011;42426;46.104;19.656;2022-07-23T14:45:41;10.57;;;6.93;;
56122;SDS011;42426;46.104;19.656;2022-07-23T14:48:07;7.57;;;6.85;;
56122;SDS011;42426;46.104;19.656;2022-07-23T14:50:33;7.18;;;6.47;;
56122;SDS011;42426;46.104;19.656;2022-07-23T14:52:59;7.50;;;6.78;;
56122;SDS011;42426;46.104;19.656;2022-07-23T14:55:25;7.10;;;6.40;;
56122;SDS011;42426;46.104;19.656;2022-07-23T14:57:51;7.60;;;6.03;;
56122;SDS011;42426;46.104;19.656;2022-07-23T15:00:16;8.68;;;6.65;;
56122;SDS011;42426;46.104;19.656;2022-07-23T15:02:42;10.52;;;7.18;;
56122;SDS011;42426;46.104;19.656;2022-07-23T15:05:08;13.48;;;7.03;;
56122;SDS011;42426;46.104;19.656;2022-07-23T15:07:34;8.88;;;8.00;;
56122;SDS011;42426;46.104;19.656;2022-07-23T15:10:00;13.55;;;11.35;;
56122;SDS011;42426;46.104;19.656;2022-07-23T15:12:26;12.80;;;9.50;;
56122;SDS011;42426;46.104;19.656;2022-07-23T15:14:51;9.32;;;8.20;;
56122;SDS011;42426;46.104;19.656;2022-07-23T15:17:17;11.48;;;7.07;;
56122;SDS011;42426;46.104;19.656;2022-07-23T15:19:43;8.18;;;7.18;;